Time;durP1;ratioP1;P1;durP2;ratioP2;P2;SDS_P1;SDS_P2;PMS_P1;PMS_P2;Temp;Humidity;BMP_temperature;BMP_pressure;BME280_temperature;BME280_humidity;BME280_pressure;Samples;Min_cycle;Max_cycle;Signal;HPM_P1;HPM_P2
2021/05/14 00:00:47;;;;;;;2.40;2.20;;;11.70;99.90;;;;;;5042154;28;20208;-71
2021/05/14 00:03:13;;;;;;;3.03;2.50;;;11.60;99.90;;;;;;5039382;28;20464;-71
2021/05/14 00:05:39;;;;;;;2.77;2.57;;;11.60;99.90;;;;;;5040378;28;20462;-70
2021/05/14 00:08:06;;;;;;;2.50;2.30;;;11.50;99.90;;;;;;5020415;28;20422;-70
2021/05/14 00:10:35;;;;;;;2.80;2.60;;;11.40;99.90;;;;;;5039401;28;20951;-70
2021/05/14 00:13:00;;;;;;;2.40;2.20;;;11.30;99.90;;;;;;5042368;28;20441;-71
2021/05/14 00:15:26;;;;;;;3.00;2.70;;;11.20;99.90;;;;;;5038117;28;21151;-70
2021/05/14 00:17:52;;;;;;;2.83;2.63;;;11.20;99.90;;;;;;5040144;28;20192;-71
2021/05/14 00:20:17;;;;;;;2.70;2.33;;;11.20;99.90;;;;;;5041914;28;20184;-69
2021/05/14 00:22:43;;;;;;;3.70;2.30;;;11.20;99.90;;;;;;5037793;28;20220;-69
2021/05/14 00:25:10;;;;;;;4.20;2.83;;;11.10;99.90;;;;;;5039265;28;20207;-69
2021/05/14 00:27:35;;;;;;;4.20;2.50;;;11.00;99.90;;;;;;5040729;28;20184;-71
2021/05/14 00:30:02;;;;;;;2.43;2.23;;;11.00;99.90;;;;;;5038608;28;20441;-68
2021/05/14 00:32:28;;;;;;;3.70;2.50;;;11.00;99.90;;;;;;5039495;28;20190;-70
2021/05/14 00:34:54;;;;;;;2.30;2.10;;;11.00;99.90;;;;;;5040211;28;21004;-71
2021/05/14 00:37:19;;;;;;;3.00;2.03;;;10.90;99.90;;;;;;5039628;28;20191;-70
2021/05/14 00:39:45;;;;;;;3.07;2.37;;;10.90;99.90;;;;;;5040962;28;20337;-71
2021/05/14 00:42:11;;;;;;;2.47;2.27;;;11.00;99.90;;;;;;5040989;28;20212;-69
2021/05/14 00:44:43;;;;;;;2.40;2.20;;;11.10;99.90;;;;;;5039028;28;20455;-70
2021/05/14 00:47:09;;;;;;;3.70;2.03;;;11.10;99.90;;;;;;5042716;28;20441;-69
2021/05/14 00:49:36;;;;;;;2.40;2.20;;;11.10;99.90;;;;;;5039196;28;20489;-71
2021/05/14 00:52:03;;;;;;;2.57;2.30;;;11.10;99.90;;;;;;5023101;28;20195;-71
2021/05/14 00:54:30;;;;;;;2.50;2.30;;;11.10;99.90;;;;;;5041493;28;20430;-71
2021/05/14 00:56:57;;;;;;;3.73;2.30;;;11.20;99.90;;;;;;5041417;28;22089;-71
2021/05/14 00:59:23;;;;;;;5.00;2.20;;;11.20;99.90;;;;;;5038831;28;20446;-70
2021/05/14 01:01:49;;;;;;;2.33;2.13;;;11.30;99.90;;;;;;5038972;28;21022;-72
2021/05/14 01:04:14;;;;;;;2.90;2.47;;;11.30;99.90;;;;;;5039205;28;20188;-70
2021/05/14 01:06:40;;;;;;;3.57;2.60;;;11.40;99.90;;;;;;5037715;28;20223;-71
2021/05/14 01:09:06;;;;;;;2.10;2.00;;;11.40;99.90;;;;;;5040632;28;20896;-70
2021/05/14 01:11:33;;;;;;;2.33;2.13;;;11.40;99.90;;;;;;5021352;28;20690;-70
2021/05/14 01:13:58;;;;;;;2.63;2.20;;;11.50;99.90;;;;;;5038466;28;20188;-70
2021/05/14 01:16:24;;;;;;;2.40;2.20;;;11.50;99.90;;;;;;5040509;28;21104;-71
2021/05/14 01:18:51;;;;;;;2.83;2.57;;;11.50;99.90;;;;;;5038995;28;20961;-71
2021/05/14 01:21:17;;;;;;;2.20;2.00;;;11.60;99.90;;;;;;5039620;28;20960;-72
2021/05/14 01:23:42;;;;;;;2.40;2.20;;;11.60;99.90;;;;;;5040084;28;20453;-70
2021/05/14 01:26:19;;;;;;;2.37;2.27;;;11.60;99.90;;;;;;5037204;28;20203;-71
2021/05/14 01:28:46;;;;;;;2.53;2.33;;;11.50;99.90;;;;;;5038371;28;20265;-71
2021/05/14 01:31:12;;;;;;;4.93;2.30;;;11.50;99.90;;;;;;5040241;28;20512;-70
2021/05/14 01:33:38;;;;;;;2.97;2.77;;;11.50;99.90;;;;;;5037683;28;20434;-71
2021/05/14 01:36:07;;;;;;;2.93;2.63;;;11.50;99.90;;;;;;5038317;28;20458;-70
2021/05/14 01:38:33;;;;;;;4.57;2.30;;;11.50;99.90;;;;;;5038145;28;20430;-71
2021/05/14 01:40:59;;;;;;;2.93;2.30;;;11.50;99.90;;;;;;5038674;28;20465;-71
2021/05/14 01:43:25;;;;;;;2.70;2.50;;;11.50;99.90;;;;;;5039608;28;20498;-71
2021/05/14 01:45:51;;;;;;;2.80;2.60;;;11.60;99.90;;;;;;5038874;28;20484;-71
2021/05/14 01:48:17;;;;;;;3.13;2.70;;;11.60;99.90;;;;;;5039894;28;21169;-69
2021/05/14 01:50:43;;;;;;;2.40;2.20;;;11.60;99.90;;;;;;5038442;28;20199;-69
2021/05/14 01:53:09;;;;;;;2.47;2.30;;;11.60;99.90;;;;;;5014587;28;20447;-71
2021/05/14 01:55:36;;;;;;;2.80;2.60;;;11.60;99.90;;;;;;5040279;28;20967;-71
2021/05/14 01:58:02;;;;;;;2.93;2.63;;;11.60;99.90;;;;;;5039860;28;20199;-70
2021/05/14 02:00:28;;;;;;;4.50;2.87;;;11.60;99.90;;;;;;5039065;28;20446;-72
2021/05/14 02:02:54;;;;;;;2.03;1.93;;;11.60;99.90;;;;;;5038120;28;20493;-72
2021/05/14 02:05:19;;;;;;;2.40;2.20;;;11.60;99.90;;;;;;5039860;28;20207;-71
2021/05/14 02:07:45;;;;;;;2.77;2.53;;;11.60;99.90;;;;;;5038517;28;20709;-72
2021/05/14 02:10:11;;;;;;;2.60;2.40;;;11.60;99.90;;;;;;5039825;28;20198;-69
2021/05/14 02:12:37;;;;;;;3.50;2.47;;;11.50;99.90;;;;;;5038998;28;20180;-70
2021/05/14 02:15:05;;;;;;;2.27;2.07;;;11.50;99.90;;;;;;5038866;28;20307;-69
2021/05/14 02:17:30;;;;;;;3.40;2.60;;;11.50;99.90;;;;;;5039423;28;20439;-70
2021/05/14 02:19:56;;;;;;;2.50;2.30;;;11.60;99.90;;;;;;5040962;28;20430;-71
2021/05/14 02:22:22;;;;;;;2.93;2.73;;;11.50;99.90;;;;;;5038694;28;20204;-70
2021/05/14 02:24:49;;;;;;;2.70;2.50;;;11.50;99.90;;;;;;5038134;28;20938;-70
2021/05/14 02:27:16;;;;;;;3.60;2.60;;;11.50;99.90;;;;;;5037541;28;20430;-71
2021/05/14 02:29:42;;;;;;;3.17;2.43;;;11.40;99.90;;;;;;5038422;28;21081;-71
2021/05/14 02:32:07;;;;;;;3.20;2.90;;;11.30;99.90;;;;;;5038761;28;20461;-71
2021/05/14 02:34:33;;;;;;;3.60;2.40;;;11.20;99.90;;;;;;5038778;28;20196;-69
2021/05/14 02:36:59;;;;;;;2.43;2.23;;;11.20;99.90;;;;;;5020122;28;20188;-71
2021/05/14 02:39:25;;;;;;;2.40;2.20;;;11.10;99.90;;;;;;5042564;28;20226;-72
2021/05/14 02:41:50;;;;;;;3.33;2.43;;;11.10;99.90;;;;;;5042177;28;20214;-73
2021/05/14 02:44:16;;;;;;;2.90;2.60;;;11.00;99.90;;;;;;5042011;28;20434;-70
2021/05/14 02:46:43;;;;;;;2.50;2.30;;;10.90;99.90;;;;;;5022572;28;20318;-72
2021/05/14 02:49:10;;;;;;;3.27;2.80;;;10.80;99.90;;;;;;5038482;28;20249;-72
2021/05/14 02:51:37;;;;;;;2.63;2.10;;;10.80;99.90;;;;;;5037719;28;20483;-70
2021/05/14 02:54:03;;;;;;;2.77;2.53;;;10.80;99.90;;;;;;5040833;28;20896;-70
2021/05/14 02:56:30;;;;;;;2.50;2.30;;;10.80;99.90;;;;;;5039245;28;20466;-71
2021/05/14 02:58:56;;;;;;;2.60;2.40;;;10.80;99.90;;;;;;5043308;28;20447;-70
2021/05/14 03:01:22;;;;;;;3.03;2.73;;;10.80;99.90;;;;;;5041186;28;21136;-70
2021/05/14 03:03:48;;;;;;;4.23;2.30;;;10.70;99.90;;;;;;5042293;28;20454;-73
2021/05/14 03:06:14;;;;;;;3.30;3.10;;;10.70;99.90;;;;;;5041131;28;20469;-71
2021/05/14 03:08:40;;;;;;;2.60;2.40;;;10.70;99.90;;;;;;5040073;28;20195;-69
2021/05/14 03:11:06;;;;;;;2.90;2.70;;;10.70;99.90;;;;;;5043271;28;20445;-68
2021/05/14 03:13:32;;;;;;;2.80;2.50;;;10.70;99.90;;;;;;5042253;28;20187;-72
2021/05/14 03:15:58;;;;;;;2.27;2.07;;;10.70;99.90;;;;;;5040095;28;20462;-71
2021/05/14 03:18:23;;;;;;;3.00;2.43;;;10.70;99.90;;;;;;5040951;28;20562;-71
2021/05/14 03:20:49;;;;;;;2.77;2.30;;;10.70;99.90;;;;;;5042224;28;21307;-72
2021/05/14 03:23:16;;;;;;;4.07;2.43;;;10.80;99.90;;;;;;5040504;28;20568;-72
2021/05/14 03:25:41;;;;;;;3.53;2.23;;;10.80;99.90;;;;;;5039550;28;20549;-71
2021/05/14 03:28:07;;;;;;;2.30;2.10;;;10.80;99.90;;;;;;5040603;28;20469;-72
2021/05/14 03:30:33;;;;;;;2.77;2.57;;;10.70;99.90;;;;;;5037479;28;20693;-72
2021/05/14 03:32:59;;;;;;;2.70;2.50;;;10.70;99.90;;;;;;5041037;28;20287;-70
2021/05/14 03:35:25;;;;;;;2.37;2.00;;;10.70;99.90;;;;;;5038688;28;20299;-71
2021/05/14 03:37:50;;;;;;;2.40;1.97;;;10.70;99.90;;;;;;5039287;28;20450;-71
2021/05/14 03:42:51;;;;;;;2.53;2.33;;;10.60;99.90;;;;;;5039856;28;20306;-72
2021/05/14 03:45:17;;;;;;;2.77;2.57;;;10.60;99.90;;;;;;5042647;28;20561;-69
2021/05/14 03:47:43;;;;;;;2.80;2.40;;;10.60;99.90;;;;;;5040988;28;20268;-71
2021/05/14 03:50:09;;;;;;;2.60;2.40;;;10.60;99.90;;;;;;5039298;28;20194;-70
2021/05/14 03:52:34;;;;;;;2.43;2.23;;;10.60;99.90;;;;;;5040221;28;20267;-69
2021/05/14 03:55:01;;;;;;;3.50;2.40;;;10.50;99.90;;;;;;5040940;28;20552;-68
2021/05/14 03:57:27;;;;;;;2.57;2.37;;;10.50;99.90;;;;;;5040209;28;20188;-71
2021/05/14 03:59:53;;;;;;;2.60;2.27;;;10.50;99.90;;;;;;5041172;28;20457;-69
2021/05/14 04:02:19;;;;;;;2.90;2.30;;;10.40;99.90;;;;;;5042304;28;20277;-70
2021/05/14 04:04:44;;;;;;;2.40;2.20;;;10.30;99.90;;;;;;5040972;28;20249;-69
2021/05/14 04:07:10;;;;;;;2.60;2.40;;;10.30;99.90;;;;;;5022151;28;20459;-71
2021/05/14 04:09:38;;;;;;;2.37;2.17;;;10.30;99.90;;;;;;5040040;28;20635;-70
2021/05/14 04:14:34;;;;;;;2.30;2.20;;;10.20;99.90;;;;;;5041212;28;20446;-71
2021/05/14 04:17:01;;;;;;;4.47;2.33;;;10.20;99.90;;;;;;5042296;28;20441;-70
2021/05/14 04:19:27;;;;;;;2.70;2.50;;;10.20;99.90;;;;;;5038877;28;20466;-72
2021/05/14 04:21:55;;;;;;;2.20;2.00;;;10.20;99.90;;;;;;5041298;28;20476;-71
2021/05/14 04:24:22;;;;;;;2.80;2.40;;;10.10;99.90;;;;;;5040067;28;20434;-71
2021/05/14 04:26:49;;;;;;;2.27;2.07;;;10.10;99.90;;;;;;5039003;28;20430;-71
2021/05/14 04:29:16;;;;;;;2.60;2.33;;;10.10;99.90;;;;;;5040443;28;20434;-72
2021/05/14 04:31:43;;;;;;;3.10;2.10;;;10.10;99.90;;;;;;5040066;28;20450;-71
2021/05/14 04:34:10;;;;;;;2.40;2.20;;;10.10;99.90;;;;;;5039994;28;20503;-71
2021/05/14 04:36:36;;;;;;;3.97;2.77;;;10.10;99.90;;;;;;5040876;28;21051;-71
2021/05/14 04:39:01;;;;;;;3.20;2.40;;;10.10;99.90;;;;;;5040534;28;20426;-71
2021/05/14 04:41:27;;;;;;;2.47;2.10;;;10.10;99.90;;;;;;5039859;28;20195;-70
2021/05/14 04:43:52;;;;;;;3.80;2.37;;;10.10;99.90;;;;;;5040166;28;20183;-70
2021/05/14 04:46:18;;;;;;;2.63;2.43;;;10.20;99.90;;;;;;5039217;28;20742;-70
2021/05/14 04:48:44;;;;;;;4.30;2.80;;;10.20;99.90;;;;;;5039159;28;20185;-70
2021/05/14 04:51:09;;;;;;;4.73;2.40;;;10.30;99.90;;;;;;5040446;28;20195;-70
2021/05/14 04:53:36;;;;;;;3.00;2.30;;;10.30;99.90;;;;;;5038673;28;20234;-69
2021/05/14 04:56:03;;;;;;;2.40;2.20;;;10.40;99.90;;;;;;5040251;28;20219;-69
2021/05/14 04:58:29;;;;;;;2.80;2.60;;;10.40;99.90;;;;;;5039189;28;20447;-70
2021/05/14 05:00:55;;;;;;;3.63;2.37;;;10.40;99.90;;;;;;5037906;28;20457;-70
2021/05/14 05:03:21;;;;;;;3.33;2.90;;;10.40;99.90;;;;;;5039248;28;20222;-70
2021/05/14 05:05:48;;;;;;;4.07;3.17;;;10.50;99.90;;;;;;5039485;28;20226;-72
2021/05/14 05:08:13;;;;;;;2.87;2.63;;;10.50;99.90;;;;;;5039447;28;20198;-70
2021/05/14 05:10:39;;;;;;;2.90;2.60;;;10.50;99.90;;;;;;5038657;28;20442;-69
2021/05/14 05:13:05;;;;;;;4.27;2.93;;;10.50;99.90;;;;;;5038761;28;20280;-71
2021/05/14 05:15:30;;;;;;;5.10;2.70;;;10.50;99.90;;;;;;5037529;28;20269;-70
2021/05/14 05:17:56;;;;;;;3.17;2.70;;;10.60;99.90;;;;;;5040060;28;20199;-71
2021/05/14 05:20:22;;;;;;;2.90;2.60;;;10.70;99.90;;;;;;5038339;28;20629;-70
2021/05/14 05:22:47;;;;;;;2.90;2.60;;;10.80;99.90;;;;;;5040409;28;20211;-71
2021/05/14 05:25:13;;;;;;;2.60;2.40;;;10.80;99.90;;;;;;5023370;28;20211;-70
2021/05/14 05:27:40;;;;;;;3.50;2.40;;;10.90;99.90;;;;;;5037319;28;20192;-70
2021/05/14 05:30:06;;;;;;;3.47;2.70;;;10.90;99.90;;;;;;5039467;28;20191;-69
2021/05/14 05:32:32;;;;;;;3.60;2.63;;;11.00;99.90;;;;;;5019125;28;20972;-70
2021/05/14 05:34:58;;;;;;;2.83;2.23;;;11.00;99.90;;;;;;5038121;28;20553;-70
2021/05/14 05:37:24;;;;;;;2.50;2.30;;;11.10;99.90;;;;;;5038017;28;20214;-72
2021/05/14 05:39:50;;;;;;;2.50;2.30;;;11.30;99.90;;;;;;5039482;28;20650;-71
2021/05/14 05:42:15;;;;;;;2.50;2.30;;;11.40;99.90;;;;;;5039827;28;20477;-71
2021/05/14 05:44:41;;;;;;;2.40;2.20;;;11.60;99.90;;;;;;5039139;28;20226;-70
2021/05/14 05:47:07;;;;;;;2.70;2.30;;;11.70;99.90;;;;;;5039257;28;20202;-71
2021/05/14 05:49:33;;;;;;;2.17;1.97;;;11.80;99.90;;;;;;5040508;28;20835;-70
2021/05/14 05:51:58;;;;;;;3.40;2.47;;;11.80;99.90;;;;;;5039120;28;20288;-71
2021/05/14 05:54:24;;;;;;;2.47;2.27;;;11.80;99.90;;;;;;5036835;28;20871;-71
2021/05/14 05:56:50;;;;;;;3.23;2.50;;;11.80;99.90;;;;;;5036767;28;20876;-72
2021/05/14 05:59:18;;;;;;;2.70;2.00;;;11.90;99.90;;;;;;5018763;28;20232;-71
2021/05/14 06:01:44;;;;;;;3.63;2.13;;;12.00;99.90;;;;;;5034291;28;20478;-71
2021/05/14 06:04:10;;;;;;;4.50;2.27;;;12.00;99.90;;;;;;5032802;28;20469;-71
2021/05/14 06:06:36;;;;;;;1.90;1.77;;;12.10;99.90;;;;;;5037319;28;20462;-72
2021/05/14 06:09:03;;;;;;;2.40;2.10;;;12.30;99.90;;;;;;5033582;28;20188;-71
2021/05/14 06:11:28;;;;;;;3.40;2.33;;;12.40;99.90;;;;;;5032852;28;22013;-71
2021/05/14 06:13:54;;;;;;;3.97;2.17;;;12.50;99.90;;;;;;5030322;28;20446;-70
2021/05/14 06:16:20;;;;;;;5.30;2.60;;;12.50;99.90;;;;;;5034376;28;20220;-70
2021/05/14 06:18:51;;;;;;;2.57;2.27;;;12.60;99.90;;;;;;5040629;28;20903;-71
2021/05/14 06:21:16;;;;;;;2.70;2.50;;;12.60;99.90;;;;;;5039551;28;20446;-70
2021/05/14 06:23:42;;;;;;;3.30;2.03;;;12.60;99.90;;;;;;5034573;28;20473;-70
2021/05/14 06:26:07;;;;;;;2.50;2.30;;;12.70;99.90;;;;;;5037044;28;20208;-71
2021/05/14 06:28:33;;;;;;;2.60;2.40;;;12.70;99.90;;;;;;5035778;28;20195;-71
2021/05/14 06:30:59;;;;;;;2.40;2.20;;;12.70;99.90;;;;;;5016921;28;20218;-73
2021/05/14 06:33:27;;;;;;;3.47;2.50;;;12.80;99.90;;;;;;5038284;28;20198;-70
2021/05/14 06:35:53;;;;;;;2.00;1.90;;;12.90;99.90;;;;;;5037230;28;20242;-71
2021/05/14 06:38:19;;;;;;;2.40;2.20;;;12.90;99.90;;;;;;5036447;28;20507;-70
2021/05/14 06:40:44;;;;;;;2.40;2.20;;;12.80;99.90;;;;;;5034571;28;20453;-72
2021/05/14 06:43:10;;;;;;;2.47;2.00;;;12.80;99.90;;;;;;5037501;28;21150;-72
2021/05/14 06:45:36;;;;;;;2.47;2.27;;;12.80;99.90;;;;;;5035922;28;20701;-70
2021/05/14 06:48:07;;;;;;;2.50;2.30;;;12.90;99.90;;;;;;5036829;28;20199;-70
2021/05/14 06:50:34;;;;;;;2.50;2.30;;;12.90;99.90;;;;;;5035071;28;20342;-72
2021/05/14 06:53:02;;;;;;;2.03;1.93;;;12.90;99.90;;;;;;5034780;28;20450;-70
2021/05/14 06:55:27;;;;;;;2.80;2.60;;;12.90;99.90;;;;;;5033716;28;20507;-69
2021/05/14 06:57:53;;;;;;;3.10;2.20;;;13.00;99.90;;;;;;5038319;28;20827;-70
2021/05/14 07:00:20;;;;;;;3.30;2.20;;;13.10;99.90;;;;;;5035532;28;20207;-70
2021/05/14 07:02:46;;;;;;;2.77;2.57;;;13.20;99.90;;;;;;5038738;28;20215;-71
2021/05/14 07:05:16;;;;;;;2.63;2.20;;;13.30;99.90;;;;;;5038395;28;20458;-70
2021/05/14 07:07:42;;;;;;;3.13;2.47;;;13.30;99.90;;;;;;5038327;28;20446;-72
2021/05/14 07:10:10;;;;;;;3.00;2.70;;;13.40;99.90;;;;;;5035557;28;20448;-70
2021/05/14 07:12:36;;;;;;;4.13;2.70;;;13.40;99.90;;;;;;5038578;28;20438;-70
2021/05/14 07:15:03;;;;;;;3.57;2.30;;;13.40;99.90;;;;;;5036917;28;21208;-71
2021/05/14 07:17:29;;;;;;;2.87;2.60;;;13.50;99.90;;;;;;5043370;28;20544;-69
2021/05/14 07:19:54;;;;;;;2.40;2.20;;;13.60;99.90;;;;;;5037953;28;20971;-70
2021/05/14 07:22:20;;;;;;;2.27;2.07;;;13.80;99.90;;;;;;5038831;28;20957;-70
2021/05/14 07:24:46;;;;;;;2.10;2.00;;;13.80;99.90;;;;;;5034923;28;20225;-71
2021/05/14 07:27:13;;;;;;;3.93;2.20;;;13.70;99.90;;;;;;5039356;28;20682;-71
2021/05/14 07:29:39;;;;;;;2.03;1.90;;;13.80;99.90;;;;;;5038758;28;20184;-70
2021/05/14 07:32:05;;;;;;;2.20;2.10;;;14.00;99.90;;;;;;5040756;28;20449;-69
2021/05/14 07:34:31;;;;;;;3.93;2.27;;;14.00;99.90;;;;;;5034480;28;20283;-70
2021/05/14 07:36:57;;;;;;;2.53;2.10;;;14.00;99.90;;;;;;5041721;28;20580;-69
2021/05/14 07:39:23;;;;;;;2.10;1.90;;;14.10;99.90;;;;;;5041633;28;20786;-70
2021/05/14 07:41:49;;;;;;;2.10;2.00;;;14.10;99.90;;;;;;5036340;28;20223;-70
2021/05/14 07:44:14;;;;;;;2.37;2.10;;;14.20;99.90;;;;;;5041593;28;20499;-70
2021/05/14 07:46:40;;;;;;;2.60;2.00;;;14.20;99.90;;;;;;5039794;28;20511;-70
2021/05/14 07:49:05;;;;;;;2.73;2.53;;;14.20;99.90;;;;;;5040280;28;21135;-70
2021/05/14 07:51:31;;;;;;;2.60;2.13;;;14.40;99.90;;;;;;5025843;28;20274;-70
2021/05/14 07:53:57;;;;;;;3.90;2.07;;;14.60;99.90;;;;;;5038837;28;21470;-71
2021/05/14 07:56:23;;;;;;;2.60;2.20;;;14.50;99.90;;;;;;5039715;28;20614;-72
2021/05/14 07:58:49;;;;;;;2.87;2.67;;;14.60;99.90;;;;;;5042569;28;20199;-67
2021/05/14 08:01:15;;;;;;;3.00;2.80;;;14.60;99.90;;;;;;5043309;28;20466;-69
2021/05/14 08:03:40;;;;;;;2.20;2.00;;;14.70;99.90;;;;;;5039479;28;20226;-71
2021/05/14 08:06:06;;;;;;;2.30;2.20;;;14.90;99.90;;;;;;5042853;28;20462;-68
2021/05/14 08:08:36;;;;;;;2.70;1.93;;;15.00;99.90;;;;;;5040355;28;20743;-71
2021/05/14 08:11:02;;;;;;;2.40;2.20;;;15.00;99.90;;;;;;5041361;28;20241;-70
2021/05/14 08:13:27;;;;;;;2.10;2.00;;;15.10;99.90;;;;;;5039944;28;20898;-71
2021/05/14 08:15:53;;;;;;;2.13;1.93;;;15.10;99.90;;;;;;5036746;28;20248;-71
2021/05/14 08:18:19;;;;;;;5.83;2.30;;;15.30;99.90;;;;;;5033560;28;20725;-71
2021/05/14 08:20:46;;;;;;;3.40;3.10;;;15.50;99.90;;;;;;5016109;28;20232;-71
2021/05/14 08:23:12;;;;;;;2.13;2.03;;;15.50;99.90;;;;;;5039499;28;20489;-70
2021/05/14 08:25:38;;;;;;;2.47;2.13;;;15.60;99.90;;;;;;5037104;28;20454;-71
2021/05/14 08:28:04;;;;;;;2.60;2.17;;;15.70;99.90;;;;;;5017124;28;20434;-68
2021/05/14 08:30:30;;;;;;;2.30;2.10;;;15.80;99.90;;;;;;5035091;28;20188;-71
2021/05/14 08:32:56;;;;;;;2.67;2.47;;;15.90;99.90;;;;;;5034168;28;20483;-69
2021/05/14 08:35:22;;;;;;;2.60;2.40;;;16.10;99.90;;;;;;5036577;28;20328;-70
2021/05/14 08:37:48;;;;;;;2.47;2.27;;;16.20;99.90;;;;;;5037847;28;20192;-70
2021/05/14 08:40:15;;;;;;;2.37;2.20;;;16.30;99.90;;;;;;5038646;28;20848;-69
2021/05/14 08:42:42;;;;;;;2.00;1.90;;;16.40;99.90;;;;;;5034140;28;20555;-69
2021/05/14 08:45:09;;;;;;;2.47;2.27;;;16.20;99.90;;;;;;5035541;28;20477;-70
2021/05/14 08:47:40;;;;;;;2.30;2.20;;;16.20;99.90;;;;;;5033929;28;21028;-70
2021/05/14 08:50:07;;;;;;;2.50;2.30;;;16.40;99.90;;;;;;5035775;28;20529;-70
2021/05/14 08:52:40;;;;;;;2.20;2.10;;;16.50;99.90;;;;;;5038176;28;20476;-69
2021/05/14 08:55:08;;;;;;;7.13;2.70;;;16.50;99.90;;;;;;5035547;28;20507;-70
2021/05/14 08:57:34;;;;;;;2.10;2.00;;;16.30;99.90;;;;;;5035460;28;20442;-71
2021/05/14 09:00:01;;;;;;;2.10;1.90;;;16.30;99.90;;;;;;5036442;28;20507;-71
2021/05/14 09:02:26;;;;;;;2.03;1.93;;;16.20;99.90;;;;;;5041056;28;20466;-71
2021/05/14 09:04:52;;;;;;;2.50;2.30;;;16.30;99.90;;;;;;5037737;28;20442;-71
2021/05/14 09:07:19;;;;;;;2.50;2.30;;;16.20;99.90;;;;;;5039482;28;20183;-71
2021/05/14 09:10:05;;;;;;;2.00;1.90;;;16.10;99.90;;;;;;5039414;28;20192;-70
2021/05/14 09:12:36;;;;;;;2.10;2.00;;;16.10;99.90;;;;;;5033764;28;20525;-71
2021/05/14 09:15:26;;;;;;;2.43;2.23;;;16.00;99.90;;;;;;5038975;28;20497;-71
2021/05/14 09:18:04;;;;;;;5.20;2.20;;;16.40;99.90;;;;;;5038052;28;20437;-72
2021/05/14 09:20:34;;;;;;;2.73;2.50;;;16.60;99.90;;;;;;5037053;28;20568;-72
2021/05/14 09:23:20;;;;;;;2.50;2.30;;;16.70;99.90;;;;;;5024001;28;20831;-72
2021/05/14 09:26:04;;;;;;;2.50;2.30;;;16.90;99.90;;;;;;5036596;28;20450;-71
2021/05/14 09:28:36;;;;;;;2.30;2.20;;;17.10;99.90;;;;;;5038101;28;20489;-71
2021/05/14 09:31:26;;;;;;;2.77;2.10;;;17.20;99.90;;;;;;5040532;28;20529;-70
2021/05/14 09:33:53;;;;;;;2.50;2.40;;;17.40;99.90;;;;;;5034006;28;20465;-70
2021/05/14 09:36:22;;;;;;;2.40;2.23;;;17.30;99.90;;;;;;5038445;28;20445;-72
2021/05/14 09:39:00;;;;;;;2.57;2.37;;;17.30;99.90;;;;;;5022566;28;20499;-71
2021/05/14 09:41:42;;;;;;;2.90;2.70;;;17.50;99.90;;;;;;5038817;28;20430;-69
2021/05/14 09:44:14;;;;;;;2.63;2.43;;;17.50;99.90;;;;;;5039436;28;20492;-70
2021/05/14 09:46:41;;;;;;;2.60;2.40;;;17.50;99.90;;;;;;5035919;28;20498;-69
2021/05/14 09:49:09;;;;;;;2.90;2.70;;;17.60;99.90;;;;;;5036689;28;20441;-70
2021/05/14 09:51:45;;;;;;;2.80;2.60;;;17.70;99.90;;;;;;5041559;28;20944;-70
2021/05/14 09:54:36;;;;;;;2.50;2.40;;;17.80;99.90;;;;;;5045982;28;20440;-70
2021/05/14 09:59:50;;;;;;;2.70;2.50;;;17.40;99.90;;;;;;5041665;28;21325;-70
2021/05/14 10:02:30;;;;;;;2.90;2.57;;;17.70;99.90;;;;;;5044253;28;20458;-72
2021/05/14 10:04:57;;;;;;;2.63;2.10;;;18.00;99.90;;;;;;5041813;28;21037;-71
2021/05/14 10:07:25;;;;;;;2.37;2.17;;;18.30;99.90;;;;;;5043233;28;21061;-70
2021/05/14 10:09:52;;;;;;;2.07;1.97;;;18.40;99.90;;;;;;5044358;28;20430;-71
2021/05/14 10:12:19;;;;;;;2.70;2.50;;;18.40;99.90;;;;;;5025438;28;20445;-71
2021/05/14 10:14:45;;;;;;;2.50;2.30;;;18.20;99.90;;;;;;5044301;28;20486;-70
2021/05/14 10:17:11;;;;;;;3.50;2.50;;;18.20;99.90;;;;;;5041856;28;20441;-70
2021/05/14 10:19:39;;;;;;;2.63;2.43;;;18.40;99.90;;;;;;5043824;28;20192;-69
2021/05/14 10:22:06;;;;;;;2.83;2.50;;;18.60;99.90;;;;;;5044061;28;20947;-71
2021/05/14 10:24:54;;;;;;;2.60;2.40;;;18.80;99.90;;;;;;5039215;28;20481;-70
2021/05/14 10:27:27;;;;;;;2.40;2.30;;;18.80;99.90;;;;;;5046900;28;20410;-71
2021/05/14 10:30:02;;;;;;;2.43;2.33;;;18.70;99.90;;;;;;5047149;28;20429;-70
2021/05/14 10:32:43;;;;;;;2.90;2.70;;;18.60;99.90;;;;;;5015224;28;20448;-71
2021/05/14 10:35:11;;;;;;;2.50;2.40;;;18.50;99.90;;;;;;5043232;28;20462;-70
2021/05/14 10:37:49;;;;;;;4.23;2.50;;;18.40;99.90;;;;;;5041256;28;20529;-70
2021/05/14 10:40:32;;;;;;;4.57;2.53;;;18.20;99.90;;;;;;5045686;28;20430;-72
2021/05/14 10:43:05;;;;;;;2.70;2.50;;;18.30;99.90;;;;;;5040365;28;20481;-71
2021/05/14 10:45:46;;;;;;;5.73;2.50;;;18.60;99.90;;;;;;5026182;28;20449;-70
2021/05/14 10:48:21;;;;;;;2.50;2.30;;;18.80;99.90;;;;;;5042131;28;21580;-71
2021/05/14 10:50:59;;;;;;;2.83;2.63;;;19.00;99.90;;;;;;5040284;28;20445;-70
2021/05/14 10:53:28;;;;;;;3.93;2.63;;;19.20;99.90;;;;;;5027635;28;20426;-70
2021/05/14 10:55:56;;;;;;;2.67;2.57;;;19.30;99.90;;;;;;5043447;28;20876;-71
2021/05/14 10:58:45;;;;;;;2.90;2.70;;;19.40;99.90;;;;;;5043169;28;20521;-72
2021/05/14 11:01:39;;;;;;;2.70;2.50;;;19.30;99.90;;;;;;5042496;28;22004;-70
2021/05/14 11:04:24;;;;;;;2.57;2.37;;;19.60;98.50;;;;;;5042274;28;20457;-71
2021/05/14 11:06:52;;;;;;;2.47;2.37;;;19.90;97.40;;;;;;5040447;28;20545;-69
2021/05/14 11:09:21;;;;;;;2.70;2.50;;;20.00;99.00;;;;;;5045636;28;20427;-70
2021/05/14 11:12:01;;;;;;;3.10;2.90;;;20.30;97.40;;;;;;5043528;28;20439;-71
2021/05/14 11:14:40;;;;;;;2.60;2.40;;;20.60;93.70;;;;;;5026178;28;21070;-71
2021/05/14 11:17:13;;;;;;;2.40;2.30;;;21.00;94.50;;;;;;5042768;28;20441;-71
2021/05/14 11:19:50;;;;;;;2.93;2.50;;;21.20;95.60;;;;;;5041799;28;20422;-71
2021/05/14 11:22:24;;;;;;;2.73;2.60;;;21.60;91.70;;;;;;5041976;28;20464;-69
2021/05/14 11:25:02;;;;;;;3.00;2.80;;;22.30;88.50;;;;;;5041272;28;20456;-71
2021/05/14 11:27:30;;;;;;;5.33;2.80;;;23.00;87.10;;;;;;5038995;28;20491;-70
2021/05/14 11:30:08;;;;;;;3.00;2.80;;;24.00;82.40;;;;;;5039920;28;20438;-71
2021/05/14 11:32:34;;;;;;;2.93;2.73;;;23.60;73.30;;;;;;5041825;28;20457;-70
2021/05/14 11:35:03;;;;;;;2.90;2.70;;;23.20;70.20;;;;;;5036711;28;20473;-70
2021/05/14 11:37:31;;;;;;;2.57;2.47;;;23.30;70.60;;;;;;5042277;28;20741;-70
2021/05/14 11:40:03;;;;;;;2.80;2.60;;;22.80;68.90;;;;;;5042572;28;20427;-70
2021/05/14 11:42:29;;;;;;;2.90;2.80;;;23.20;69.80;;;;;;5040399;28;20917;-71
2021/05/14 11:44:57;;;;;;;3.30;3.10;;;24.30;68.20;;;;;;5043324;28;20465;-70
2021/05/14 11:47:23;;;;;;;3.30;3.00;;;25.30;65.40;;;;;;5042409;28;20238;-72
2021/05/14 11:49:48;;;;;;;3.30;3.10;;;26.60;64.40;;;;;;5039010;28;20850;-71
2021/05/14 11:52:15;;;;;;;2.80;2.70;;;27.80;59.30;;;;;;5035412;28;20489;-71
2021/05/14 11:54:40;;;;;;;3.00;2.80;;;28.40;56.50;;;;;;5039729;28;20192;-71
2021/05/14 11:57:06;;;;;;;4.07;3.37;;;28.20;52.90;;;;;;5043101;28;20432;-70
2021/05/14 11:59:32;;;;;;;2.87;2.73;;;29.30;53.10;;;;;;5039753;28;20215;-71
2021/05/14 12:01:57;;;;;;;3.27;3.07;;;29.50;50.30;;;;;;5040557;28;20666;-71
2021/05/14 12:04:23;;;;;;;2.93;2.73;;;28.70;48.60;;;;;;5042154;28;20230;-70
2021/05/14 12:06:49;;;;;;;3.00;2.90;;;27.00;50.00;;;;;;5042771;28;20212;-71
2021/05/14 12:09:15;;;;;;;3.73;3.30;;;25.40;50.90;;;;;;5036591;28;20606;-70
2021/05/14 12:11:43;;;;;;;3.43;3.17;;;24.40;53.00;;;;;;5037623;28;20449;-71
2021/05/14 12:14:09;;;;;;;3.47;3.23;;;23.30;54.40;;;;;;5042041;28;20192;-70
2021/05/14 12:16:38;;;;;;;3.50;3.30;;;22.70;56.00;;;;;;5041261;28;20458;-69
2021/05/14 12:19:04;;;;;;;3.40;3.20;;;22.30;56.50;;;;;;5040146;28;20216;-71
2021/05/14 12:21:35;;;;;;;3.17;2.97;;;22.20;57.90;;;;;;5042495;28;20484;-69
2021/05/14 12:24:14;;;;;;;4.17;3.87;;;22.10;58.50;;;;;;5019819;28;20515;-71
2021/05/14 12:26:41;;;;;;;10.90;9.90;;;22.50;58.20;;;;;;5037919;28;20837;-71
2021/05/14 12:29:26;;;;;;;3.47;3.17;;;22.00;57.40;;;;;;5039590;28;20521;-71
2021/05/14 12:31:56;;;;;;;3.57;3.27;;;21.60;57.90;;;;;;5033846;28;20499;-69
2021/05/14 12:34:23;;;;;;;3.80;3.20;;;21.20;58.10;;;;;;5041854;28;20441;-70
2021/05/14 12:36:53;;;;;;;3.97;3.03;;;20.90;58.50;;;;;;5038512;28;20458;-71
2021/05/14 12:39:20;;;;;;;3.30;3.10;;;20.70;58.60;;;;;;5039558;28;20425;-72
2021/05/14 12:42:04;;;;;;;3.20;3.00;;;20.60;58.70;;;;;;5036723;28;20534;-69
2021/05/14 12:44:34;;;;;;;3.00;2.80;;;20.60;58.30;;;;;;5040960;28;20522;-71
2021/05/14 12:47:00;;;;;;;2.90;2.73;;;20.50;57.60;;;;;;5040154;28;20441;-70
2021/05/14 12:49:42;;;;;;;3.33;3.10;;;20.30;58.90;;;;;;5042056;28;20414;-71
2021/05/14 12:52:30;;;;;;;3.00;2.80;;;20.20;59.60;;;;;;5038788;28;20606;-72
2021/05/14 12:55:11;;;;;;;3.10;2.90;;;19.90;59.60;;;;;;5038293;28;20908;-70
2021/05/14 12:57:42;;;;;;;2.90;2.70;;;19.60;60.50;;;;;;5036774;28;20449;-70
2021/05/14 13:00:37;;;;;;;3.03;2.80;;;19.50;63.40;;;;;;5019837;28;21272;-71